Salinas, Brazil
Current Conditions -  °F | °C
As of 5:00 AM on Sunday 26 Oct 2014 (Local Time) from SBMK Reporting Station
Clear Clear  
Wind Chill: 73°   Ceiling: Unl
Heat Index: 73°   Visibility: 6mi
Dew Point: 57°   Wind: 6mph
Humidity: 57%   Direction: 140°SE
Pressure: 29.91"   Gusts: NA
Location:  16.17°S, 42.29°W
Report Text: SBMK 260700Z 14005KT CAVOK 23/14 Q1013
Loading
Personal Weather Stations






























Interactive Weather Map
Tropical Storm Tracking
New forecast layout! Learn more

10-Day Weather Forecast

Advertisements
Track Severe Weather on mobile